Tiempo atmosférico en la estación meteorológica de La Pobla de Cérvoles, Lleida (671 m.)



Fecha
DESCASC
Temp. máxima en grados centígrados (hora)
DESCASC
Temp. mínima en grados centígrados (hora)
DESCASC
Temp. media en grados centígrados
DESCASC
Racha de viento máxima en m/sg (hora)
DESCASC
Velocidad máxima media en intervalos de 10 minutos(hora)
DESCASC
Precipitaciones diarias en mm
DESCASC
Precipitaciones de 00:00 a 06:00 en mm
DESCASC
Precipitaciones de 06:00 a 12:00 en mm
DESCASC
Precipitaciones de 12:00 a 18:00 en mm
DESCASC
Precipitaciones de 18:00 a 24:00 en mm
DESCASC
20-01-2019 5.5 (00:10) 2 (23:50) 3.8 -- (--) -- (--) 3.6 0.8 2.8 0 0
19-01-2019 6.4 (15:00) -0.5 (08:20) 3 -- (--) -- (--) 0 0 0 0 0
18-01-2019 4.9 (14:30) 0.2 (00:00) 2.6 -- (--) -- (--) 0 0 0 0 0
17-01-2019 3.2 (01:20) 0.5 (00:00) 1.9 -- (--) -- (--) 0 0 0 0 0
16-01-2019 12.7 (14:00) -1 (-00:0) 5.8 -- (--) -- (--) 0 0 0 0 0
15-01-2019 12.8 (14:00) 1.3 (00:00) 7.1 -- (--) -- (--) 0 0 0 0 0
14-01-2019 11.8 (14:30) 3.7 (00:00) 7.8 -- (--) -- (--) 0 0 0 0 0
13-01-2019 10.2 (16:10) 1.7 (00:00) 5.9 -- (--) -- (--) 0 0 0 0 0
12-01-2019 7.7 (14:30) -0.6 (-00:0) 3.5 -- (--) -- (--) 0 0 0 0 0
11-01-2019 4.4 (15:40) -3.9 (-00:0) 0.3 -- (--) -- (--) 0 0 0 0 0
10-01-2019 6.6 (15:00) -2.3 (-00:0) 2.1 -- (--) -- (--) 0 0 0 0 0
09-01-2019 10.5 (15:10) 1.2 (00:00) 5.9 -- (--) -- (--) 0 0 0 0 0
08-01-2019 7.6 (14:20) -0.8 (-00:0) 3.4 -- (--) -- (--) 0 0 0 0 0
07-01-2019 8.4 (14:40) 0.3 (00:00) 4.3 -- (--) -- (--) 0 0 0 0 0
06-01-2019 11.2 (14:00) 2.5 (00:00) 6.8 -- (--) -- (--) 0 0 0 0 0
05-01-2019 9.1 (15:20) -2.1 (-00:0) 3.5 -- (--) -- (--) 0 0 0 0 0
04-01-2019 8.6 (15:00) -2.6 (-00:0) 3 -- (--) -- (--) 0 0 0 0 0
03-01-2019 7.8 (14:00) -2.9 (-00:0) 2.5 -- (--) -- (--) 0 0 0 0 0
02-01-2019 8.2 (15:10) 1.4 (00:00) 4.8 -- (--) -- (--) 0 0 0 0 0
01-01-2019 12.7 (13:10) 1.2 (00:00) 6.9 -- (--) -- (--) 0 0 0 0 0
31-12-2018 12.2 (13:30) 0.3 (00:00) 6.2 -- (--) -- (--) 0 0 0 0 0
30-12-2018 9.7 (14:30) -2.5 (-00:0) 3.6 -- (--) -- (--) 0 0 0 0 0
29-12-2018 6.6 (15:40) 1.5 (00:00) 4 -- (--) -- (--) 0 0 0 0 0
28-12-2018 3.5 (13:50) 0.5 (00:00) 2 -- (--) -- (--) 0.4 0.4 0 0 0
27-12-2018 5.7 (01:10) 2.7 (00:00) 4.2 -- (--) -- (--) 0 0 0 0 0
26-12-2018 12.1 (14:10) 4.6 (00:00) 8.4 -- (--) -- (--) 0 0 0 0 0
25-12-2018 14.3 (12:50) 3.4 (00:00) 8.9 -- (--) -- (--) 0 0 0 0 0
24-12-2018 13.1 (14:20) 3.5 (08:50) 8.3 -- (--) -- (--) 0 0 0 0 0
23-12-2018 14.9 (14:10) 3.7 (00:00) 9.3 -- (--) -- (--) 0 0 0 0 0

Gráficas

Temp. máximas Temp. mínimas Temp. medias Precipitaciones Rachas de viento máximas Velocidades máximas media en intervalos de 10 minutos

Datos horarios

Fecha y hora oficial Temperatura (ºC) Velocidad del viento (km/h) Dirección del viento Racha (km/h) Dirección de racha Precipitación (mm) Presión (hPa) Tendencia (hPa) Humedad (%)
2019-01-21 23:00:00 0.9 -- -- -- -- 0 -- -- 77
2019-01-21 22:00:00 1.7 -- -- -- -- 0 -- -- 76
2019-01-21 21:00:00 2.6 -- -- -- -- 0 -- -- 73
2019-01-21 20:00:00 3.3 -- -- -- -- 0 -- -- 71
2019-01-21 19:00:00 3.6 -- -- -- -- 0 -- -- 78
2019-01-21 18:00:00 5.2 -- -- -- -- 0 -- -- 68
2019-01-21 17:00:00 6.7 -- -- -- -- 0 -- -- 61
2019-01-21 16:00:00 7 -- -- -- -- 0 -- -- 61
2019-01-21 15:00:00 6.8 -- -- -- -- 0 -- -- 67
2019-01-21 14:00:00 6.5 -- -- -- -- 0 -- -- 79
2019-01-21 13:00:00 4 -- -- -- -- 0 -- -- 89
2019-01-21 12:00:00 3.6 -- -- -- -- 0 -- -- 92
2019-01-21 11:00:00 1.7 -- -- -- -- 0 -- -- 95
2019-01-21 10:00:00 1.4 -- -- -- -- 0 -- -- 96
2019-01-21 09:00:00 1.1 -- -- -- -- 0 -- -- 97
2019-01-21 08:00:00 1 -- -- -- -- 0 -- -- 97
2019-01-21 07:00:00 1.3 -- -- -- -- 0 -- -- 96
2019-01-21 06:00:00 1.6 -- -- -- -- 0 -- -- 97
2019-01-21 05:00:00 1.4 -- -- -- -- 0 -- -- 97
2019-01-21 04:00:00 2.1 -- -- -- -- 0 -- -- 97
2019-01-21 03:00:00 2.1 -- -- -- -- 0 -- -- 98
2019-01-21 02:00:00 1.8 -- -- -- -- 0 -- -- 97
2019-01-21 01:00:00 1.8 -- -- -- -- 0 -- -- 97
2019-01-21 00:00:00 2 -- -- -- -- 0 -- -- 95
2019-01-20 23:00:00 2.5 -- -- -- -- 0 -- -- 94
2019-01-20 22:00:00 3.1 -- -- -- -- 0 -- -- 94
2019-01-20 21:00:00 3.8 -- -- -- -- 0 -- -- 94
2019-01-20 20:00:00 4.1 -- -- -- -- 0 -- -- 95
2019-01-20 19:00:00 3 -- -- -- -- 0 -- -- 94
2019-01-20 18:00:00 3.3 -- -- -- -- 0 -- -- 94
2019-01-20 17:00:00 4.2 -- -- -- -- 0 -- -- 95
2019-01-20 16:00:00 4 -- -- -- -- 0 -- -- 98
2019-01-20 15:00:00 3.6 -- -- -- -- 0 -- -- 99
2019-01-20 14:00:00 3.1 -- -- -- -- 0 -- -- 99
2019-01-20 13:00:00 2.7 -- -- -- -- 0 -- -- 99
2019-01-20 12:00:00 2.3 -- -- -- -- 0 -- -- 99
2019-01-20 11:00:00 2.1 -- -- -- -- 0.6 -- -- 98
2019-01-20 10:00:00 2.2 -- -- -- -- 0.2 -- -- 97
2019-01-20 09:00:00 3 -- -- -- -- 0.4 -- -- 97
2019-01-20 08:00:00 3.1 -- -- -- -- 1 -- -- 96
2019-01-20 07:00:00 4.1 -- -- -- -- 0.6 -- -- 96
2019-01-20 06:00:00 4.3 -- -- -- -- 0.2 -- -- 95
2019-01-20 05:00:00 4.4 -- -- -- -- 0 -- -- 94
2019-01-20 04:00:00 4.7 -- -- -- -- 0 -- -- 93
2019-01-20 03:00:00 5 -- -- -- -- 0.2 -- -- 92
2019-01-20 02:00:00 5.3 -- -- -- -- 0.4 -- -- 91
2019-01-20 01:00:00 5.4 -- -- -- -- 0 -- -- 88
2019-01-20 00:00:00 5.4 -- -- -- -- 0 -- -- 84
2019-01-19 23:00:00 5.2 -- -- -- -- 0 -- -- 82
2019-01-19 22:00:00 4.9 -- -- -- -- 0 -- -- 77
2019-01-19 21:00:00 5.1 -- -- -- -- 0 -- -- 75
2019-01-19 20:00:00 5 -- -- -- -- 0 -- -- 75
2019-01-19 19:00:00 3.4 -- -- -- -- 0 -- -- 80
2019-01-19 18:00:00 4.3 -- -- -- -- 0 -- -- 77
2019-01-19 17:00:00 5.4 -- -- -- -- 0 -- -- 75
2019-01-19 16:00:00 6.1 -- -- -- -- 0 -- -- 72
2019-01-19 15:00:00 6.4 -- -- -- -- 0 -- -- 75
2019-01-19 14:00:00 5.8 -- -- -- -- 0 -- -- 78
2019-01-19 13:00:00 4.8 -- -- -- -- 0 -- -- 80
2019-01-19 12:00:00 3.7 -- -- -- -- 0 -- -- 84
2019-01-19 11:00:00 2.9 -- -- -- -- 0 -- -- 89
2019-01-19 10:00:00 0.9 -- -- -- -- 0 -- -- 96
2019-01-19 09:00:00 -0.4 -- -- -- -- 0 -- -- 95
2019-01-19 08:00:00 -0.4 -- -- -- -- 0 -- -- 94
2019-01-19 07:00:00 0 -- -- -- -- 0 -- -- 93
2019-01-19 06:00:00 0.5 -- -- -- -- 0 -- -- 92
2019-01-19 05:00:00 0.9 -- -- -- -- 0 -- -- 90
2019-01-19 04:00:00 0.6 -- -- -- -- 0 -- -- 92
2019-01-19 03:00:00 0.5 -- -- -- -- 0 -- -- 90
2019-01-19 02:00:00 1.1 -- -- -- -- 0 -- -- 89
2019-01-19 01:00:00 1.5 -- -- -- -- 0 -- -- 88
2019-01-19 00:00:00 2 -- -- -- -- 0 -- -- 85
2019-01-18 23:00:00 2.9 -- -- -- -- 0 -- -- 82
2019-01-18 22:00:00 3.2 -- -- -- -- 0 -- -- 82
2019-01-18 21:00:00 3.2 -- -- -- -- 0 -- -- 84
2019-01-18 20:00:00 3.1 -- -- -- -- 0 -- -- 86
2019-01-18 19:00:00 3.1 -- -- -- -- 0 -- -- 86
2019-01-18 18:00:00 3.5 -- -- -- -- 0 -- -- 85
2019-01-18 17:00:00 3.8 -- -- -- -- 0 -- -- 83
2019-01-18 16:00:00 4.2 -- -- -- -- 0 -- -- 81
2019-01-18 15:00:00 4.4 -- -- -- -- 0 -- -- 78
2019-01-18 14:00:00 4.1 -- -- -- -- 0 -- -- 82
2019-01-18 13:00:00 3.7 -- -- -- -- 0 -- -- 87
2019-01-18 12:00:00 2.6 -- -- -- -- 0 -- -- 90
2019-01-18 11:00:00 2 -- -- -- -- 0 -- -- 93
2019-01-18 10:00:00 1.5 -- -- -- -- 0 -- -- 96
2019-01-18 09:00:00 0.3 -- -- -- -- 0 -- -- 96
2019-01-18 08:00:00 0.4 -- -- -- -- 0 -- -- 96
2019-01-18 07:00:00 0.5 -- -- -- -- 0 -- -- 96
2019-01-18 06:00:00 0.8 -- -- -- -- 0 -- -- 97
2019-01-18 05:00:00 1 -- -- -- -- 0 -- -- 98
2019-01-18 04:00:00 1.2 -- -- -- -- 0 -- -- 98
2019-01-18 03:00:00 1.2 -- -- -- -- 0 -- -- 98
2019-01-18 02:00:00 1 -- -- -- -- 0 -- -- 98
2019-01-18 01:00:00 1.4 -- -- -- -- 0 -- -- 98
2019-01-18 00:00:00 1.5 -- -- -- -- 0 -- -- 97
2019-01-17 23:00:00 0.8 -- -- -- -- 0 -- -- 98
2019-01-17 22:00:00 1.6 -- -- -- -- 0 -- -- 97
2019-01-17 21:00:00 2 -- -- -- -- 0 -- -- 98
2019-01-17 20:00:00 1.7 -- -- -- -- 0 -- -- 99
2019-01-17 19:00:00 1.5 -- -- -- -- 0 -- -- 99
2019-01-17 18:00:00 1.6 -- -- -- -- 0 -- -- 99
2019-01-17 17:00:00 1.8 -- -- -- -- 0 -- -- 99
2019-01-17 16:00:00 1.9 -- -- -- -- 0 -- -- 99
2019-01-17 15:00:00 1.8 -- -- -- -- 0 -- -- 99
2019-01-17 14:00:00 1.9 -- -- -- -- 0 -- -- 99
2019-01-17 13:00:00 1.9 -- -- -- -- 0 -- -- 99
2019-01-17 12:00:00 1.8 -- -- -- -- 0 -- -- 99
2019-01-17 11:00:00 1.8 -- -- -- -- 0 -- -- 99
2019-01-17 10:00:00 1.6 -- -- -- -- 0 -- -- 99
2019-01-17 09:00:00 1.4 -- -- -- -- 0 -- -- 99
2019-01-17 08:00:00 1.5 -- -- -- -- 0 -- -- 98
2019-01-17 07:00:00 1.8 -- -- -- -- 0 -- -- 99
2019-01-17 06:00:00 2.2 -- -- -- -- 0 -- -- 98
2019-01-17 05:00:00 2.6 -- -- -- -- 0 -- -- 99
2019-01-17 04:00:00 2.8 -- -- -- -- 0 -- -- 98
2019-01-17 03:00:00 2.9 -- -- -- -- 0 -- -- 98
2019-01-17 02:00:00 3.1 -- -- -- -- 0 -- -- 98
2019-01-17 01:00:00 2.7 -- -- -- -- 0 -- -- 98
2019-01-17 00:00:00 0.8 -- -- -- -- 0 -- -- 93
2019-01-16 23:00:00 2 -- -- -- -- 0 -- -- 90
2019-01-16 22:00:00 3.4 -- -- -- -- 0 -- -- 90
2019-01-16 21:00:00 5.3 -- -- -- -- 0 -- -- 89
2019-01-16 20:00:00 5.9 -- -- -- -- 0 -- -- 91
2019-01-16 19:00:00 5.6 -- -- -- -- 0 -- -- 87
2019-01-16 18:00:00 7.6 -- -- -- -- 0 -- -- 81
2019-01-16 17:00:00 9.9 -- -- -- -- 0 -- -- 80
2019-01-16 16:00:00 10 -- -- -- -- 0 -- -- 81
2019-01-16 15:00:00 11.2 -- -- -- -- 0 -- -- 75
2019-01-16 14:00:00 12.7 -- -- -- -- 0 -- -- 71
2019-01-16 13:00:00 11.4 -- -- -- -- 0 -- -- 74